sensor_id;sensor_type;location;lat;lon;timestamp;pressure;altitude;pressure_sealevel;temperature;humidity
50123;BME280;36021;48.670;6.184;2023-05-23T00:00:59;99086.06;;;16.87;100.00
50123;BME280;36021;48.670;6.184;2023-05-23T00:03:26;99085.44;;;16.81;100.00
50123;BME280;36021;48.670;6.184;2023-05-23T00:05:53;99089.22;;;16.77;100.00
50123;BME280;36021;48.670;6.184;2023-05-23T00:08:21;99083.63;;;16.77;100.00
50123;BME280;36021;48.670;6.184;2023-05-23T00:10:49;99087.00;;;16.61;100.00
50123;BME280;36021;48.670;6.184;2023-05-23T00:13:15;99086.47;;;16.59;100.00
50123;BME280;36021;48.670;6.184;2023-05-23T00:15:42;99089.44;;;16.54;100.00
50123;BME280;36021;48.670;6.184;2023-05-23T00:18:08;99085.19;;;16.57;100.00
50123;BME280;36021;48.670;6.184;2023-05-23T00:20:36;99090.94;;;16.43;100.00
50123;BME280;36021;48.670;6.184;2023-05-23T00:23:08;99093.53;;;16.48;100.00
50123;BME280;36021;48.670;6.184;2023-05-23T00:25:35;99092.22;;;16.54;100.00
50123;BME280;36021;48.670;6.184;2023-05-23T00:28:04;99090.91;;;16.60;100.00
50123;BME280;36021;48.670;6.184;2023-05-23T00:30:32;99097.28;;;16.52;100.00
50123;BME280;36021;48.670;6.184;2023-05-23T00:32:58;99088.00;;;16.40;100.00
50123;BME280;36021;48.670;6.184;2023-05-23T00:35:25;99094.41;;;16.32;100.00
50123;BME280;36021;48.670;6.184;2023-05-23T00:37:51;99092.78;;;16.22;100.00
50123;BME280;36021;48.670;6.184;2023-05-23T00:40:17;99083.94;;;16.20;100.00
50123;BME280;36021;48.670;6.184;2023-05-23T00:42:44;99078.72;;;16.19;100.00
50123;BME280;36021;48.670;6.184;2023-05-23T00:45:11;99081.81;;;16.17;100.00
50123;BME280;36021;48.670;6.184;2023-05-23T00:47:43;99077.75;;;16.14;100.00
50123;BME280;36021;48.670;6.184;2023-05-23T00:50:12;99068.78;;;16.09;100.00
50123;BME280;36021;48.670;6.184;2023-05-23T00:52:44;99081.69;;;16.05;100.00
50123;BME280;36021;48.670;6.184;2023-05-23T00:55:13;99088.88;;;16.14;100.00
50123;BME280;36021;48.670;6.184;2023-05-23T00:57:41;99087.44;;;16.00;100.00
50123;BME280;36021;48.670;6.184;2023-05-23T01:00:12;99092.00;;;15.96;100.00
50123;BME280;36021;48.670;6.184;2023-05-23T01:02:42;99088.91;;;16.06;100.00
50123;BME280;36021;48.670;6.184;2023-05-23T01:05:10;99081.56;;;15.93;100.00
50123;BME280;36021;48.670;6.184;2023-05-23T01:07:39;99081.22;;;15.86;100.00
50123;BME280;36021;48.670;6.184;2023-05-23T01:10:06;99090.22;;;15.83;100.00
50123;BME280;36021;48.670;6.184;2023-05-23T01:15:07;99092.50;;;15.72;100.00
50123;BME280;36021;48.670;6.184;2023-05-23T01:17:44;99099.38;;;15.66;100.00
50123;BME280;36021;48.670;6.184;2023-05-23T01:20:21;99096.75;;;15.78;100.00
50123;BME280;36021;48.670;6.184;2023-05-23T01:27:55;99102.66;;;15.77;100.00
50123;BME280;36021;48.670;6.184;2023-05-23T01:30:24;99102.81;;;15.80;100.00
50123;BME280;36021;48.670;6.184;2023-05-23T01:32:53;99106.06;;;15.82;100.00
50123;BME280;36021;48.670;6.184;2023-05-23T01:35:24;99105.91;;;15.87;100.00
50123;BME280;36021;48.670;6.184;2023-05-23T01:37:56;99095.63;;;15.96;100.00
50123;BME280;36021;48.670;6.184;2023-05-23T01:40:25;99095.94;;;15.95;100.00
50123;BME280;36021;48.670;6.184;2023-05-23T01:42:51;99095.44;;;15.93;100.00
50123;BME280;36021;48.670;6.184;2023-05-23T01:45:18;99105.09;;;15.87;100.00
50123;BME280;36021;48.670;6.184;2023-05-23T01:47:46;99106.22;;;15.77;100.00
50123;BME280;36021;48.670;6.184;2023-05-23T01:50:13;99097.91;;;15.86;100.00
50123;BME280;36021;48.670;6.184;2023-05-23T01:52:40;99109.50;;;15.79;100.00
50123;BME280;36021;48.670;6.184;2023-05-23T01:55:08;99114.06;;;15.75;100.00
50123;BME280;36021;48.670;6.184;2023-05-23T01:57:36;99117.69;;;15.67;100.00
50123;BME280;36021;48.670;6.184;2023-05-23T02:00:06;99114.41;;;15.65;100.00
50123;BME280;36021;48.670;6.184;2023-05-23T02:02:40;99121.78;;;15.70;100.00
50123;BME280;36021;48.670;6.184;2023-05-23T02:05:09;99118.00;;;15.83;100.00
50123;BME280;36021;48.670;6.184;2023-05-23T02:07:36;99109.84;;;15.86;100.00
50123;BME280;36021;48.670;6.184;2023-05-23T02:10:07;99113.75;;;15.94;100.00
50123;BME280;36021;48.670;6.184;2023-05-23T02:12:32;99119.16;;;15.82;100.00
50123;BME280;36021;48.670;6.184;2023-05-23T02:14:58;99111.78;;;15.77;100.00
50123;BME280;36021;48.670;6.184;2023-05-23T02:17:25;99118.81;;;15.92;100.00
50123;BME280;36021;48.670;6.184;2023-05-23T02:19:51;99117.84;;;15.88;100.00
50123;BME280;36021;48.670;6.184;2023-05-23T02:22:22;99112.44;;;15.91;100.00
50123;BME280;36021;48.670;6.184;2023-05-23T02:24:49;99118.50;;;15.85;100.00
50123;BME280;36021;48.670;6.184;2023-05-23T02:27:14;99115.91;;;15.80;100.00
50123;BME280;36021;48.670;6.184;2023-05-23T02:29:43;99124.53;;;15.78;100.00
50123;BME280;36021;48.670;6.184;2023-05-23T02:32:09;99125.69;;;15.86;100.00
50123;BME280;36021;48.670;6.184;2023-05-23T02:34:34;99123.25;;;15.93;100.00
50123;BME280;36021;48.670;6.184;2023-05-23T02:37:00;99121.44;;;15.88;100.00
50123;BME280;36021;48.670;6.184;2023-05-23T02:39:26;99115.88;;;15.97;100.00
50123;BME280;36021;48.670;6.184;2023-05-23T02:41:54;99123.72;;;15.95;100.00
50123;BME280;36021;48.670;6.184;2023-05-23T02:44:20;99128.16;;;15.96;100.00
50123;BME280;36021;48.670;6.184;2023-05-23T02:46:46;99125.69;;;16.03;100.00
50123;BME280;36021;48.670;6.184;2023-05-23T02:49:12;99134.03;;;15.94;100.00
50123;BME280;36021;48.670;6.184;2023-05-23T02:51:37;99127.81;;;15.89;100.00
50123;BME280;36021;48.670;6.184;2023-05-23T02:54:03;99129.28;;;15.86;100.00
50123;BME280;36021;48.670;6.184;2023-05-23T02:56:31;99133.69;;;15.87;100.00
50123;BME280;36021;48.670;6.184;2023-05-23T02:58:57;99132.22;;;15.73;100.00
50123;BME280;36021;48.670;6.184;2023-05-23T03:01:24;99139.25;;;15.70;100.00
50123;BME280;36021;48.670;6.184;2023-05-23T03:03:49;99139.44;;;15.74;100.00
50123;BME280;36021;48.670;6.184;2023-05-23T03:06:15;99136.31;;;15.75;100.00
50123;BME280;36021;48.670;6.184;2023-05-23T03:08:42;99138.44;;;15.70;100.00
50123;BME280;36021;48.670;6.184;2023-05-23T03:11:09;99146.91;;;15.64;100.00
50123;BME280;36021;48.670;6.184;2023-05-23T03:13:34;99147.41;;;15.58;100.00
50123;BME280;36021;48.670;6.184;2023-05-23T03:16:02;99137.78;;;15.73;100.00
50123;BME280;36021;48.670;6.184;2023-05-23T03:18:28;99140.25;;;15.83;100.00
50123;BME280;36021;48.670;6.184;2023-05-23T03:20:54;99142.84;;;15.79;100.00
50123;BME280;36021;48.670;6.184;2023-05-23T03:23:22;99139.91;;;15.84;100.00
50123;BME280;36021;48.670;6.184;2023-05-23T03:25:48;99144.34;;;15.77;100.00
50123;BME280;36021;48.670;6.184;2023-05-23T03:28:13;99136.81;;;15.86;100.00
50123;BME280;36021;48.670;6.184;2023-05-23T03:30:40;99138.78;;;15.77;100.00
50123;BME280;36021;48.670;6.184;2023-05-23T03:33:06;99143.69;;;15.88;100.00
50123;BME280;36021;48.670;6.184;2023-05-23T03:35:33;99144.63;;;15.84;100.00
50123;BME280;36021;48.670;6.184;2023-05-23T03:38:00;99138.09;;;15.97;100.00
50123;BME280;36021;48.670;6.184;2023-05-23T03:40:25;99138.47;;;15.87;100.00
50123;BME280;36021;48.670;6.184;2023-05-23T03:43:05;99143.81;;;15.75;100.00
50123;BME280;36021;48.670;6.184;2023-05-23T03:45:34;99147.75;;;15.65;100.00
50123;BME280;36021;48.670;6.184;2023-05-23T03:48:03;99143.34;;;15.73;100.00
50123;BME280;36021;48.670;6.184;2023-05-23T03:50:29;99156.59;;;15.67;100.00
50123;BME280;36021;48.670;6.184;2023-05-23T03:52:55;99154.47;;;15.73;100.00
50123;BME280;36021;48.670;6.184;2023-05-23T03:55:21;99155.94;;;15.70;100.00
50123;BME280;36021;48.670;6.184;2023-05-23T03:57:49;99150.34;;;15.61;100.00
50123;BME280;36021;48.670;6.184;2023-05-23T04:00:18;99158.69;;;15.61;100.00
50123;BME280;36021;48.670;6.184;2023-05-23T04:02:47;99152.47;;;15.64;100.00
50123;BME280;36021;48.670;6.184;2023-05-23T04:05:16;99158.19;;;15.68;100.00
50123;BME280;36021;48.670;6.184;2023-05-23T04:07:43;99161.97;;;15.63;100.00
50123;BME280;36021;48.670;6.184;2023-05-23T04:10:10;99170.78;;;15.66;100.00
50123;BME280;36021;48.670;6.184;2023-05-23T04:12:36;99155.25;;;15.64;100.00
50123;BME280;36021;48.670;6.184;2023-05-23T04:15:07;99165.56;;;15.73;100.00
50123;BME280;36021;48.670;6.184;2023-05-23T04:17:38;99161.50;;;15.79;100.00
50123;BME280;36021;48.670;6.184;2023-05-23T04:20:06;99162.47;;;15.83;100.00
50123;BME280;36021;48.670;6.184;2023-05-23T04:23:00;99167.69;;;15.84;100.00
50123;BME280;36021;48.670;6.184;2023-05-23T04:26:00;99162.16;;;15.93;100.00
50123;BME280;36021;48.670;6.184;2023-05-23T04:28:37;99167.72;;;15.93;100.00
50123;BME280;36021;48.670;6.184;2023-05-23T04:31:05;99167.56;;;16.06;100.00
50123;BME280;36021;48.670;6.184;2023-05-23T04:33:33;99157.09;;;16.12;100.00
50123;BME280;36021;48.670;6.184;2023-05-23T04:36:00;99166.91;;;16.18;100.00
50123;BME280;36021;48.670;6.184;2023-05-23T04:38:27;99159.84;;;16.21;100.00
50123;BME280;36021;48.670;6.184;2023-05-23T04:40:54;99162.66;;;16.29;100.00
50123;BME280;36021;48.670;6.184;2023-05-23T04:43:38;99165.44;;;16.29;100.00
50123;BME280;36021;48.670;6.184;2023-05-23T04:46:33;99163.44;;;16.38;100.00
50123;BME280;36021;48.670;6.184;2023-05-23T04:49:11;99160.31;;;16.48;100.00
50123;BME280;36021;48.670;6.184;2023-05-23T04:51:40;99155.09;;;16.55;100.00
50123;BME280;36021;48.670;6.184;2023-05-23T04:54:17;99148.38;;;16.56;100.00
50123;BME280;36021;48.670;6.184;2023-05-23T04:56:43;99150.00;;;16.57;100.00
50123;BME280;36021;48.670;6.184;2023-05-23T04:59:10;99156.06;;;16.59;100.00
50123;BME280;36021;48.670;6.184;2023-05-23T05:01:36;99158.50;;;16.70;100.00
50123;BME280;36021;48.670;6.184;2023-05-23T05:04:06;99159.78;;;16.72;100.00
50123;BME280;36021;48.670;6.184;2023-05-23T05:06:32;99157.81;;;16.73;100.00
50123;BME280;36021;48.670;6.184;2023-05-23T05:08:58;99158.78;;;16.77;100.00
50123;BME280;36021;48.670;6.184;2023-05-23T05:11:25;99166.69;;;16.75;100.00
50123;BME280;36021;48.670;6.184;2023-05-23T05:13:54;99175.97;;;16.79;100.00
50123;BME280;36021;48.670;6.184;2023-05-23T05:16:20;99177.25;;;16.90;100.00
50123;BME280;36021;48.670;6.184;2023-05-23T05:18:48;99170.34;;;16.96;100.00
50123;BME280;36021;48.670;6.184;2023-05-23T05:21:15;99167.09;;;16.94;100.00
50123;BME280;36021;48.670;6.184;2023-05-23T05:23:42;99171.81;;;17.02;100.00
50123;BME280;36021;48.670;6.184;2023-05-23T05:26:09;99169.22;;;16.97;100.00
50123;BME280;36021;48.670;6.184;2023-05-23T05:28:35;99177.06;;;17.03;100.00
50123;BME280;36021;48.670;6.184;2023-05-23T05:31:02;99176.22;;;17.03;100.00
50123;BME280;36021;48.670;6.184;2023-05-23T05:33:32;99181.66;;;16.99;100.00
50123;BME280;36021;48.670;6.184;2023-05-23T05:36:10;99183.44;;;17.04;100.00
50123;BME280;36021;48.670;6.184;2023-05-23T05:38:35;99193.59;;;17.00;100.00
50123;BME280;36021;48.670;6.184;2023-05-23T05:41:02;99198.81;;;17.10;100.00
50123;BME280;36021;48.670;6.184;2023-05-23T05:43:33;99190.91;;;17.21;100.00
50123;BME280;36021;48.670;6.184;2023-05-23T05:45:58;99196.03;;;17.10;100.00
50123;BME280;36021;48.670;6.184;2023-05-23T05:48:24;99201.91;;;17.08;100.00
50123;BME280;36021;48.670;6.184;2023-05-23T05:50:52;99211.59;;;17.11;100.00
50123;BME280;36021;48.670;6.184;2023-05-23T05:53:18;99210.25;;;17.17;100.00
50123;BME280;36021;48.670;6.184;2023-05-23T05:55:44;99220.75;;;17.20;100.00
50123;BME280;36021;48.670;6.184;2023-05-23T05:58:12;99214.44;;;17.32;100.00
50123;BME280;36021;48.670;6.184;2023-05-23T06:00:58;99210.28;;;17.46;100.00
50123;BME280;36021;48.670;6.184;2023-05-23T06:03:24;99218.34;;;17.39;100.00
50123;BME280;36021;48.670;6.184;2023-05-23T06:05:53;99205.72;;;17.42;100.00
50123;BME280;36021;48.670;6.184;2023-05-23T06:08:21;99212.47;;;17.32;100.00
50123;BME280;36021;48.670;6.184;2023-05-23T06:10:47;99215.63;;;17.31;100.00
50123;BME280;36021;48.670;6.184;2023-05-23T06:13:13;99221.84;;;17.28;100.00
50123;BME280;36021;48.670;6.184;2023-05-23T06:15:42;99225.13;;;17.30;100.00
50123;BME280;36021;48.670;6.184;2023-05-23T06:18:08;99223.25;;;17.42;100.00
50123;BME280;36021;48.670;6.184;2023-05-23T06:20:35;99221.09;;;17.48;100.00
50123;BME280;36021;48.670;6.184;2023-05-23T06:23:03;99217.38;;;17.35;100.00
50123;BME280;36021;48.670;6.184;2023-05-23T06:25:30;99220.00;;;17.40;100.00
50123;BME280;36021;48.670;6.184;2023-05-23T06:27:56;99217.78;;;17.63;100.00
50123;BME280;36021;48.670;6.184;2023-05-23T06:30:23;99218.47;;;17.81;100.00
50123;BME280;36021;48.670;6.184;2023-05-23T06:32:50;99217.81;;;17.84;100.00
50123;BME280;36021;48.670;6.184;2023-05-23T06:35:17;99216.94;;;17.92;100.00
50123;BME280;36021;48.670;6.184;2023-05-23T06:37:43;99218.50;;;18.01;100.00
50123;BME280;36021;48.670;6.184;2023-05-23T06:40:11;99215.59;;;17.98;100.00
50123;BME280;36021;48.670;6.184;2023-05-23T06:42:41;99215.00;;;17.84;100.00
50123;BME280;36021;48.670;6.184;2023-05-23T06:45:16;99218.44;;;17.89;100.00
50123;BME280;36021;48.670;6.184;2023-05-23T06:47:42;99207.31;;;17.81;100.00
50123;BME280;36021;48.670;6.184;2023-05-23T06:50:10;99216.88;;;17.80;100.00
50123;BME280;36021;48.670;6.184;2023-05-23T06:52:36;99221.75;;;17.83;100.00
50123;BME280;36021;48.670;6.184;2023-05-23T06:55:02;99214.84;;;17.89;100.00
50123;BME280;36021;48.670;6.184;2023-05-23T06:57:28;99220.34;;;17.97;100.00
50123;BME280;36021;48.670;6.184;2023-05-23T06:59:56;99227.63;;;17.90;100.00
50123;BME280;36021;48.670;6.184;2023-05-23T07:02:21;99222.69;;;17.87;100.00
50123;BME280;36021;48.670;6.184;2023-05-23T07:04:47;99219.88;;;17.95;100.00
50123;BME280;36021;48.670;6.184;2023-05-23T07:07:26;99230.19;;;17.95;100.00
50123;BME280;36021;48.670;6.184;2023-05-23T07:09:52;99223.56;;;18.08;100.00
50123;BME280;36021;48.670;6.184;2023-05-23T07:12:18;99224.09;;;18.01;100.00
50123;BME280;36021;48.670;6.184;2023-05-23T07:14:46;99220.28;;;18.06;100.00
50123;BME280;36021;48.670;6.184;2023-05-23T07:17:12;99219.34;;;18.02;100.00
50123;BME280;36021;48.670;6.184;2023-05-23T07:19:38;99233.34;;;18.14;100.00
50123;BME280;36021;48.670;6.184;2023-05-23T07:22:05;99236.00;;;18.31;100.00
50123;BME280;36021;48.670;6.184;2023-05-23T07:24:34;99226.34;;;18.29;100.00
50123;BME280;36021;48.670;6.184;2023-05-23T07:27:04;99247.75;;;18.16;100.00
50123;BME280;36021;48.670;6.184;2023-05-23T07:29:31;99242.59;;;18.27;100.00
50123;BME280;36021;48.670;6.184;2023-05-23T07:31:57;99239.91;;;18.39;100.00
50123;BME280;36021;48.670;6.184;2023-05-23T07:34:23;99235.41;;;18.26;100.00
50123;BME280;36021;48.670;6.184;2023-05-23T07:36:57;99244.09;;;18.24;100.00
50123;BME280;36021;48.670;6.184;2023-05-23T07:39:26;99246.13;;;18.36;100.00
50123;BME280;36021;48.670;6.184;2023-05-23T07:41:54;99245.84;;;18.49;100.00
50123;BME280;36021;48.670;6.184;2023-05-23T07:44:20;99248.59;;;18.37;100.00
50123;BME280;36021;48.670;6.184;2023-05-23T07:46:46;99249.25;;;18.13;100.00
50123;BME280;36021;48.670;6.184;2023-05-23T07:49:12;99246.84;;;18.12;100.00
50123;BME280;36021;48.670;6.184;2023-05-23T07:51:38;99250.63;;;18.07;100.00
50123;BME280;36021;48.670;6.184;2023-05-23T07:54:04;99249.50;;;18.00;100.00
50123;BME280;36021;48.670;6.184;2023-05-23T07:56:30;99256.75;;;18.01;100.00
50123;BME280;36021;48.670;6.184;2023-05-23T07:58:59;99257.56;;;18.01;100.00
50123;BME280;36021;48.670;6.184;2023-05-23T08:01:25;99261.38;;;18.17;100.00
50123;BME280;36021;48.670;6.184;2023-05-23T08:04:02;99257.19;;;18.32;100.00
50123;BME280;36021;48.670;6.184;2023-05-23T08:06:35;99260.72;;;18.41;100.00
50123;BME280;36021;48.670;6.184;2023-05-23T08:09:08;99262.81;;;18.44;100.00
50123;BME280;36021;48.670;6.184;2023-05-23T08:11:40;99260.03;;;18.44;100.00
50123;BME280;36021;48.670;6.184;2023-05-23T08:14:09;99266.31;;;18.41;100.00
50123;BME280;36021;48.670;6.184;2023-05-23T08:16:35;99263.19;;;18.63;100.00
50123;BME280;36021;48.670;6.184;2023-05-23T08:19:02;99270.69;;;18.71;100.00
50123;BME280;36021;48.670;6.184;2023-05-23T08:21:28;99258.56;;;18.67;100.00
50123;BME280;36021;48.670;6.184;2023-05-23T08:23:53;99268.63;;;18.81;100.00
50123;BME280;36021;48.670;6.184;2023-05-23T08:26:19;99264.56;;;18.90;100.00
50123;BME280;36021;48.670;6.184;2023-05-23T08:28:46;99272.81;;;18.87;100.00
50123;BME280;36021;48.670;6.184;2023-05-23T08:31:13;99261.81;;;19.02;100.00
50123;BME280;36021;48.670;6.184;2023-05-23T08:33:38;99266.88;;;18.88;100.00
50123;BME280;36021;48.670;6.184;2023-05-23T08:36:05;99264.44;;;18.87;100.00
50123;BME280;36021;48.670;6.184;2023-05-23T08:38:33;99261.16;;;19.17;100.00
50123;BME280;36021;48.670;6.184;2023-05-23T08:41:22;99262.91;;;19.22;100.00
50123;BME280;36021;48.670;6.184;2023-05-23T08:43:51;99265.50;;;19.39;100.00
50123;BME280;36021;48.670;6.184;2023-05-23T08:46:25;99263.59;;;19.19;100.00
50123;BME280;36021;48.670;6.184;2023-05-23T08:48:54;99268.75;;;19.17;100.00
50123;BME280;36021;48.670;6.184;2023-05-23T08:51:24;99270.97;;;19.23;100.00
50123;BME280;36021;48.670;6.184;2023-05-23T08:53:50;99271.31;;;19.34;100.00
50123;BME280;36021;48.670;6.184;2023-05-23T08:56:19;99277.09;;;19.50;100.00
50123;BME280;36021;48.670;6.184;2023-05-23T08:58:49;99267.31;;;19.56;100.00
50123;BME280;36021;48.670;6.184;2023-05-23T09:01:19;99271.38;;;19.58;100.00
50123;BME280;36021;48.670;6.184;2023-05-23T09:03:47;99266.03;;;19.90;100.00
50123;BME280;36021;48.670;6.184;2023-05-23T09:06:23;99266.72;;;20.11;100.00
50123;BME280;36021;48.670;6.184;2023-05-23T09:08:50;99261.13;;;20.11;100.00
50123;BME280;36021;48.670;6.184;2023-05-23T09:11:19;99259.25;;;20.15;100.00
50123;BME280;36021;48.670;6.184;2023-05-23T09:13:46;99260.19;;;20.07;100.00
50123;BME280;36021;48.670;6.184;2023-05-23T09:16:16;99258.34;;;19.99;100.00
50123;BME280;36021;48.670;6.184;2023-05-23T09:18:54;99266.03;;;20.02;100.00
50123;BME280;36021;48.670;6.184;2023-05-23T09:21:23;99264.16;;;19.94;100.00
50123;BME280;36021;48.670;6.184;2023-05-23T09:24:02;99265.13;;;19.86;100.00
50123;BME280;36021;48.670;6.184;2023-05-23T09:26:34;99274.91;;;19.92;100.00
50123;BME280;36021;48.670;6.184;2023-05-23T09:29:20;99275.81;;;19.84;100.00
50123;BME280;36021;48.670;6.184;2023-05-23T09:31:47;99280.03;;;20.02;100.00
50123;BME280;36021;48.670;6.184;2023-05-23T09:34:12;99268.94;;;20.05;100.00
50123;BME280;36021;48.670;6.184;2023-05-23T09:36:40;99276.75;;;19.63;100.00
50123;BME280;36021;48.670;6.184;2023-05-23T09:39:06;99275.34;;;19.45;100.00
50123;BME280;36021;48.670;6.184;2023-05-23T09:41:34;99266.84;;;19.54;100.00
50123;BME280;36021;48.670;6.184;2023-05-23T09:44:08;99277.91;;;19.74;100.00
50123;BME280;36021;48.670;6.184;2023-05-23T09:46:35;99267.88;;;19.73;100.00
50123;BME280;36021;48.670;6.184;2023-05-23T09:49:08;99277.22;;;19.77;100.00
50123;BME280;36021;48.670;6.184;2023-05-23T09:51:39;99275.91;;;19.99;100.00
50123;BME280;36021;48.670;6.184;2023-05-23T09:54:04;99264.72;;;19.99;100.00
50123;BME280;36021;48.670;6.184;2023-05-23T09:56:30;99273.03;;;20.08;100.00
50123;BME280;36021;48.670;6.184;2023-05-23T09:59:01;99270.41;;;20.39;100.00
50123;BME280;36021;48.670;6.184;2023-05-23T10:01:29;99268.88;;;20.82;100.00
50123;BME280;36021;48.670;6.184;2023-05-23T10:03:57;99269.31;;;21.23;100.00
50123;BME280;36021;48.670;6.184;2023-05-23T10:06:31;99276.91;;;21.39;100.00
50123;BME280;36021;48.670;6.184;2023-05-23T10:09:03;99276.28;;;21.45;100.00
50123;BME280;36021;48.670;6.184;2023-05-23T10:14:06;99281.88;;;21.29;100.00
50123;BME280;36021;48.670;6.184;2023-05-23T10:17:06;99283.22;;;21.20;100.00
50123;BME280;36021;48.670;6.184;2023-05-23T10:19:43;99272.56;;;21.25;100.00
50123;BME280;36021;48.670;6.184;2023-05-23T10:22:13;99278.78;;;21.19;100.00
50123;BME280;36021;48.670;6.184;2023-05-23T10:24:39;99278.25;;;21.29;100.00
50123;BME280;36021;48.670;6.184;2023-05-23T10:27:10;99277.03;;;20.87;100.00
50123;BME280;36021;48.670;6.184;2023-05-23T10:29:38;99277.31;;;21.09;100.00
50123;BME280;36021;48.670;6.184;2023-05-23T10:32:05;99275.94;;;20.91;100.00
50123;BME280;36021;48.670;6.184;2023-05-23T10:34:50;99291.91;;;20.75;100.00
50123;BME280;36021;48.670;6.184;2023-05-23T10:40:06;99300.56;;;20.70;100.00
50123;BME280;36021;48.670;6.184;2023-05-23T10:42:47;99288.25;;;20.47;100.00
50123;BME280;36021;48.670;6.184;2023-05-23T10:45:19;99297.00;;;20.57;100.00
50123;BME280;36021;48.670;6.184;2023-05-23T10:47:46;99294.97;;;20.70;100.00
50123;BME280;36021;48.670;6.184;2023-05-23T10:50:14;99293.00;;;20.58;100.00
50123;BME280;36021;48.670;6.184;2023-05-23T10:52:42;99295.84;;;20.46;100.00
50123;BME280;36021;48.670;6.184;2023-05-23T10:55:14;99297.16;;;20.76;100.00
50123;BME280;36021;48.670;6.184;2023-05-23T10:57:43;99297.09;;;20.89;100.00
50123;BME280;36021;48.670;6.184;2023-05-23T11:00:16;99299.09;;;20.88;100.00
50123;BME280;36021;48.670;6.184;2023-05-23T11:02:53;99291.72;;;20.68;100.00
50123;BME280;36021;48.670;6.184;2023-05-23T11:05:23;99292.38;;;20.77;100.00
50123;BME280;36021;48.670;6.184;2023-05-23T11:08:10;99289.47;;;20.73;100.00
50123;BME280;36021;48.670;6.184;2023-05-23T11:10:58;99288.50;;;20.82;100.00
50123;BME280;36021;48.670;6.184;2023-05-23T11:13:25;99292.50;;;20.68;100.00
50123;BME280;36021;48.670;6.184;2023-05-23T11:16:43;99286.38;;;20.91;100.00
50123;BME280;36021;48.670;6.184;2023-05-23T11:22:07;99282.78;;;21.06;100.00
50123;BME280;36021;48.670;6.184;2023-05-23T11:25:07;99291.59;;;20.92;100.00
50123;BME280;36021;48.670;6.184;2023-05-23T11:27:34;99279.97;;;20.78;100.00
50123;BME280;36021;48.670;6.184;2023-05-23T11:30:10;99279.41;;;21.12;100.00
50123;BME280;36021;48.670;6.184;2023-05-23T11:32:40;99278.25;;;21.29;100.00
50123;BME280;36021;48.670;6.184;2023-05-23T11:35:08;99283.88;;;21.45;100.00
50123;BME280;36021;48.670;6.184;2023-05-23T11:37:37;99274.44;;;21.37;100.00
50123;BME280;36021;48.670;6.184;2023-05-23T11:40:37;99272.44;;;21.22;100.00
50123;BME280;36021;48.670;6.184;2023-05-23T11:43:05;99275.59;;;21.20;100.00
50123;BME280;36021;48.670;6.184;2023-05-23T11:45:32;99275.44;;;21.13;100.00
50123;BME280;36021;48.670;6.184;2023-05-23T11:48:05;99273.56;;;21.05;100.00
50123;BME280;36021;48.670;6.184;2023-05-23T11:50:31;99279.44;;;21.00;100.00
50123;BME280;36021;48.670;6.184;2023-05-23T11:52:57;99279.38;;;20.85;100.00
50123;BME280;36021;48.670;6.184;2023-05-23T11:55:22;99272.56;;;20.70;100.00
50123;BME280;36021;48.670;6.184;2023-05-23T11:57:49;99283.38;;;20.71;100.00
50123;BME280;36021;48.670;6.184;2023-05-23T12:00:16;99280.41;;;20.64;100.00
50123;BME280;36021;48.670;6.184;2023-05-23T12:02:44;99270.66;;;21.02;100.00
50123;BME280;36021;48.670;6.184;2023-05-23T12:05:12;99272.66;;;20.73;100.00
50123;BME280;36021;48.670;6.184;2023-05-23T12:07:45;99269.13;;;20.76;100.00
50123;BME280;36021;48.670;6.184;2023-05-23T12:10:13;99273.25;;;20.95;100.00
50123;BME280;36021;48.670;6.184;2023-05-23T12:12:42;99271.13;;;21.04;100.00
50123;BME280;36021;48.670;6.184;2023-05-23T12:15:09;99271.22;;;21.35;100.00
50123;BME280;36021;48.670;6.184;2023-05-23T12:17:43;99269.50;;;21.62;100.00
50123;BME280;36021;48.670;6.184;2023-05-23T12:20:10;99270.75;;;21.80;100.00
50123;BME280;36021;48.670;6.184;2023-05-23T12:22:36;99261.88;;;22.09;100.00
50123;BME280;36021;48.670;6.184;2023-05-23T12:25:02;99270.97;;;22.22;100.00
50123;BME280;36021;48.670;6.184;2023-05-23T12:27:33;99263.41;;;22.42;100.00
50123;BME280;36021;48.670;6.184;2023-05-23T12:30:11;99262.38;;;22.30;100.00
50123;BME280;36021;48.670;6.184;2023-05-23T12:32:42;99264.16;;;22.58;100.00
50123;BME280;36021;48.670;6.184;2023-05-23T12:35:10;99259.41;;;22.77;100.00
50123;BME280;36021;48.670;6.184;2023-05-23T12:37:40;99267.63;;;22.86;100.00
50123;BME280;36021;48.670;6.184;2023-05-23T12:40:17;99269.69;;;22.89;100.00
50123;BME280;36021;48.670;6.184;2023-05-23T12:42:55;99265.47;;;22.79;100.00
50123;BME280;36021;48.670;6.184;2023-05-23T12:45:31;99270.44;;;22.67;100.00
50123;BME280;36021;48.670;6.184;2023-05-23T12:47:57;99272.97;;;22.37;100.00
50123;BME280;36021;48.670;6.184;2023-05-23T12:50:23;99265.69;;;22.36;100.00
50123;BME280;36021;48.670;6.184;2023-05-23T12:52:49;99263.84;;;22.24;100.00
50123;BME280;36021;48.670;6.184;2023-05-23T12:55:14;99269.03;;;22.07;100.00
50123;BME280;36021;48.670;6.184;2023-05-23T12:57:41;99274.22;;;22.05;100.00
50123;BME280;36021;48.670;6.184;2023-05-23T13:00:08;99277.28;;;22.00;100.00
50123;BME280;36021;48.670;6.184;2023-05-23T13:02:34;99269.03;;;22.07;100.00
50123;BME280;36021;48.670;6.184;2023-05-23T13:04:59;99271.22;;;21.98;100.00
50123;BME280;36021;48.670;6.184;2023-05-23T13:07:25;99271.50;;;21.93;100.00
50123;BME280;36021;48.670;6.184;2023-05-23T13:09:52;99275.72;;;21.87;100.00
50123;BME280;36021;48.670;6.184;2023-05-23T13:12:17;99265.88;;;21.77;100.00
50123;BME280;36021;48.670;6.184;2023-05-23T13:14:43;99272.59;;;21.72;100.00
50123;BME280;36021;48.670;6.184;2023-05-23T13:17:09;99267.78;;;22.04;100.00